sensor_id;sensor_type;location;lat;lon;timestamp;P1;durP1;ratioP1;P2;durP2;ratioP2
6928;SDS011;3504;52.616;13.238;2023-04-25T00:00:54;4.50;;;3.30;;
6928;SDS011;3504;52.616;13.238;2023-04-25T00:05:55;5.50;;;3.10;;
6928;SDS011;3504;52.616;13.238;2023-04-25T00:10:56;4.30;;;2.87;;
6928;SDS011;3504;52.616;13.238;2023-04-25T00:15:58;7.07;;;3.20;;
6928;SDS011;3504;52.616;13.238;2023-04-25T00:21:00;6.63;;;3.23;;
6928;SDS011;3504;52.616;13.238;2023-04-25T00:26:00;3.93;;;3.20;;
6928;SDS011;3504;52.616;13.238;2023-04-25T00:31:01;7.43;;;3.33;;
6928;SDS011;3504;52.616;13.238;2023-04-25T00:36:01;7.90;;;3.20;;
6928;SDS011;3504;52.616;13.238;2023-04-25T00:41:02;7.27;;;3.63;;
6928;SDS011;3504;52.616;13.238;2023-04-25T00:46:02;7.60;;;3.60;;
6928;SDS011;3504;52.616;13.238;2023-04-25T00:51:03;5.23;;;3.60;;
6928;SDS011;3504;52.616;13.238;2023-04-25T00:56:04;5.10;;;3.20;;
6928;SDS011;3504;52.616;13.238;2023-04-25T01:01:05;8.67;;;3.50;;
6928;SDS011;3504;52.616;13.238;2023-04-25T01:06:07;5.07;;;2.87;;
6928;SDS011;3504;52.616;13.238;2023-04-25T01:11:09;6.93;;;3.60;;
6928;SDS011;3504;52.616;13.238;2023-04-25T01:16:10;5.90;;;3.30;;
6928;SDS011;3504;52.616;13.238;2023-04-25T01:21:11;7.80;;;3.80;;
6928;SDS011;3504;52.616;13.238;2023-04-25T01:26:13;6.67;;;4.03;;
6928;SDS011;3504;52.616;13.238;2023-04-25T01:31:14;7.07;;;3.70;;
6928;SDS011;3504;52.616;13.238;2023-04-25T01:36:18;6.50;;;3.83;;
6928;SDS011;3504;52.616;13.238;2023-04-25T01:41:18;10.70;;;4.00;;
6928;SDS011;3504;52.616;13.238;2023-04-25T01:46:19;7.33;;;3.83;;
6928;SDS011;3504;52.616;13.238;2023-04-25T01:51:20;7.40;;;3.83;;
6928;SDS011;3504;52.616;13.238;2023-04-25T01:56:20;7.60;;;4.23;;
6928;SDS011;3504;52.616;13.238;2023-04-25T02:01:21;9.30;;;4.60;;
6928;SDS011;3504;52.616;13.238;2023-04-25T02:06:37;8.37;;;4.23;;
6928;SDS011;3504;52.616;13.238;2023-04-25T02:11:38;7.00;;;4.43;;
6928;SDS011;3504;52.616;13.238;2023-04-25T02:16:57;8.63;;;4.43;;
6928;SDS011;3504;52.616;13.238;2023-04-25T02:21:58;7.40;;;3.70;;
6928;SDS011;3504;52.616;13.238;2023-04-25T02:26:59;11.43;;;4.90;;
6928;SDS011;3504;52.616;13.238;2023-04-25T02:32:00;7.00;;;4.60;;
6928;SDS011;3504;52.616;13.238;2023-04-25T02:37:00;9.30;;;4.73;;
6928;SDS011;3504;52.616;13.238;2023-04-25T02:42:01;8.13;;;5.07;;
6928;SDS011;3504;52.616;13.238;2023-04-25T02:47:03;12.37;;;4.90;;
6928;SDS011;3504;52.616;13.238;2023-04-25T02:52:04;9.87;;;5.23;;
6928;SDS011;3504;52.616;13.238;2023-04-25T02:57:05;11.90;;;5.03;;
6928;SDS011;3504;52.616;13.238;2023-04-25T03:02:10;10.40;;;5.50;;
6928;SDS011;3504;52.616;13.238;2023-04-25T03:07:10;8.67;;;4.97;;
6928;SDS011;3504;52.616;13.238;2023-04-25T03:12:11;10.03;;;5.50;;
6928;SDS011;3504;52.616;13.238;2023-04-25T03:17:11;9.10;;;4.97;;
6928;SDS011;3504;52.616;13.238;2023-04-25T03:22:12;10.13;;;5.77;;
6928;SDS011;3504;52.616;13.238;2023-04-25T03:27:14;8.97;;;5.03;;
6928;SDS011;3504;52.616;13.238;2023-04-25T03:32:14;9.87;;;5.80;;
6928;SDS011;3504;52.616;13.238;2023-04-25T03:37:15;8.80;;;5.57;;
6928;SDS011;3504;52.616;13.238;2023-04-25T03:42:15;9.97;;;5.73;;
6928;SDS011;3504;52.616;13.238;2023-04-25T03:47:18;8.10;;;5.03;;
6928;SDS011;3504;52.616;13.238;2023-04-25T03:52:19;10.23;;;5.80;;
6928;SDS011;3504;52.616;13.238;2023-04-25T03:57:21;8.87;;;5.73;;
6928;SDS011;3504;52.616;13.238;2023-04-25T04:02:21;9.97;;;5.50;;
6928;SDS011;3504;52.616;13.238;2023-04-25T04:07:23;8.03;;;5.23;;
6928;SDS011;3504;52.616;13.238;2023-04-25T04:12:28;11.23;;;5.87;;
6928;SDS011;3504;52.616;13.238;2023-04-25T04:17:29;10.77;;;5.30;;
6928;SDS011;3504;52.616;13.238;2023-04-25T04:22:31;10.13;;;5.20;;
6928;SDS011;3504;52.616;13.238;2023-04-25T04:27:36;8.90;;;4.90;;
6928;SDS011;3504;52.616;13.238;2023-04-25T04:32:52;8.63;;;4.80;;
6928;SDS011;3504;52.616;13.238;2023-04-25T04:37:53;8.10;;;4.93;;
6928;SDS011;3504;52.616;13.238;2023-04-25T04:42:56;9.57;;;4.90;;
6928;SDS011;3504;52.616;13.238;2023-04-25T04:48:23;11.57;;;5.43;;
6928;SDS011;3504;52.616;13.238;2023-04-25T04:53:38;9.63;;;4.90;;
6928;SDS011;3504;52.616;13.238;2023-04-25T04:59:08;12.30;;;5.50;;
6928;SDS011;3504;52.616;13.238;2023-04-25T05:04:09;9.13;;;4.83;;
6928;SDS011;3504;52.616;13.238;2023-04-25T05:09:21;9.17;;;5.10;;
6928;SDS011;3504;52.616;13.238;2023-04-25T05:14:48;8.73;;;4.53;;
6928;SDS011;3504;52.616;13.238;2023-04-25T05:20:07;8.03;;;4.33;;
6928;SDS011;3504;52.616;13.238;2023-04-25T05:25:24;8.07;;;4.57;;
6928;SDS011;3504;52.616;13.238;2023-04-25T05:30:40;7.63;;;4.80;;
6928;SDS011;3504;52.616;13.238;2023-04-25T05:35:45;9.50;;;4.40;;
6928;SDS011;3504;52.616;13.238;2023-04-25T05:40:47;13.90;;;5.80;;
6928;SDS011;3504;52.616;13.238;2023-04-25T05:46:26;15.20;;;6.10;;
6928;SDS011;3504;52.616;13.238;2023-04-25T05:51:47;12.27;;;5.80;;
6928;SDS011;3504;52.616;13.238;2023-04-25T05:57:06;10.43;;;5.87;;
6928;SDS011;3504;52.616;13.238;2023-04-25T06:02:07;13.50;;;6.37;;
6928;SDS011;3504;52.616;13.238;2023-04-25T06:07:09;10.63;;;6.57;;
6928;SDS011;3504;52.616;13.238;2023-04-25T06:12:10;10.77;;;6.70;;
6928;SDS011;3504;52.616;13.238;2023-04-25T06:17:11;14.23;;;7.30;;
6928;SDS011;3504;52.616;13.238;2023-04-25T06:22:11;13.67;;;6.70;;
6928;SDS011;3504;52.616;13.238;2023-04-25T06:27:14;14.97;;;6.90;;
6928;SDS011;3504;52.616;13.238;2023-04-25T06:32:15;9.40;;;5.97;;
6928;SDS011;3504;52.616;13.238;2023-04-25T06:37:16;9.80;;;6.40;;
6928;SDS011;3504;52.616;13.238;2023-04-25T06:42:16;13.50;;;6.90;;
6928;SDS011;3504;52.616;13.238;2023-04-25T06:47:26;13.77;;;6.27;;
6928;SDS011;3504;52.616;13.238;2023-04-25T06:52:26;16.17;;;6.30;;
6928;SDS011;3504;52.616;13.238;2023-04-25T06:57:27;10.33;;;5.50;;
6928;SDS011;3504;52.616;13.238;2023-04-25T07:02:32;10.87;;;6.00;;
6928;SDS011;3504;52.616;13.238;2023-04-25T07:07:34;9.17;;;5.80;;
6928;SDS011;3504;52.616;13.238;2023-04-25T07:12:36;12.87;;;6.53;;
6928;SDS011;3504;52.616;13.238;2023-04-25T07:17:37;13.47;;;5.57;;
6928;SDS011;3504;52.616;13.238;2023-04-25T07:22:38;15.17;;;6.37;;
6928;SDS011;3504;52.616;13.238;2023-04-25T07:27:39;10.73;;;5.00;;
6928;SDS011;3504;52.616;13.238;2023-04-25T07:32:46;15.10;;;4.67;;
6928;SDS011;3504;52.616;13.238;2023-04-25T07:37:47;16.33;;;5.30;;
6928;SDS011;3504;52.616;13.238;2023-04-25T07:42:52;17.30;;;5.70;;
6928;SDS011;3504;52.616;13.238;2023-04-25T07:48:00;18.37;;;5.90;;
6928;SDS011;3504;52.616;13.238;2023-04-25T07:53:02;14.47;;;5.27;;
6928;SDS011;3504;52.616;13.238;2023-04-25T07:58:11;16.93;;;4.97;;
6928;SDS011;3504;52.616;13.238;2023-04-25T08:03:14;21.03;;;6.40;;
6928;SDS011;3504;52.616;13.238;2023-04-25T08:08:16;21.60;;;6.23;;
6928;SDS011;3504;52.616;13.238;2023-04-25T08:13:17;18.30;;;5.43;;
6928;SDS011;3504;52.616;13.238;2023-04-25T08:18:18;17.40;;;5.50;;
6928;SDS011;3504;52.616;13.238;2023-04-25T08:23:22;16.70;;;5.57;;
6928;SDS011;3504;52.616;13.238;2023-04-25T08:28:28;15.13;;;5.10;;
6928;SDS011;3504;52.616;13.238;2023-04-25T08:33:31;11.53;;;4.57;;
6928;SDS011;3504;52.616;13.238;2023-04-25T08:38:46;14.23;;;5.00;;
6928;SDS011;3504;52.616;13.238;2023-04-25T08:43:48;19.83;;;5.50;;
6928;SDS011;3504;52.616;13.238;2023-04-25T08:48:49;18.60;;;5.53;;
6928;SDS011;3504;52.616;13.238;2023-04-25T08:53:53;17.83;;;4.93;;
6928;SDS011;3504;52.616;13.238;2023-04-25T08:58:54;13.40;;;4.43;;
6928;SDS011;3504;52.616;13.238;2023-04-25T09:03:56;14.37;;;4.47;;
6928;SDS011;3504;52.616;13.238;2023-04-25T09:09:01;20.00;;;4.50;;
6928;SDS011;3504;52.616;13.238;2023-04-25T09:14:15;13.97;;;4.23;;
6928;SDS011;3504;52.616;13.238;2023-04-25T09:19:35;14.03;;;4.17;;
6928;SDS011;3504;52.616;13.238;2023-04-25T09:24:44;12.63;;;3.77;;
6928;SDS011;3504;52.616;13.238;2023-04-25T09:29:58;8.20;;;3.60;;
6928;SDS011;3504;52.616;13.238;2023-04-25T09:35:02;10.80;;;3.67;;
6928;SDS011;3504;52.616;13.238;2023-04-25T09:40:05;10.60;;;3.37;;
6928;SDS011;3504;52.616;13.238;2023-04-25T09:45:13;8.07;;;3.33;;
6928;SDS011;3504;52.616;13.238;2023-04-25T09:50:16;13.67;;;3.90;;
6928;SDS011;3504;52.616;13.238;2023-04-25T09:55:23;10.40;;;3.43;;
6928;SDS011;3504;52.616;13.238;2023-04-25T10:00:25;10.37;;;3.17;;
6928;SDS011;3504;52.616;13.238;2023-04-25T10:05:26;14.47;;;3.60;;
6928;SDS011;3504;52.616;13.238;2023-04-25T10:10:30;12.37;;;3.07;;
6928;SDS011;3504;52.616;13.238;2023-04-25T10:15:35;13.03;;;3.23;;
6928;SDS011;3504;52.616;13.238;2023-04-25T10:20:36;7.83;;;2.70;;
6928;SDS011;3504;52.616;13.238;2023-04-25T10:25:37;7.00;;;2.73;;
6928;SDS011;3504;52.616;13.238;2023-04-25T10:30:37;9.90;;;2.83;;
6928;SDS011;3504;52.616;13.238;2023-04-25T10:36:10;7.67;;;3.13;;
6928;SDS011;3504;52.616;13.238;2023-04-25T10:41:22;8.73;;;3.57;;
6928;SDS011;3504;52.616;13.238;2023-04-25T10:46:23;11.43;;;2.97;;
6928;SDS011;3504;52.616;13.238;2023-04-25T10:51:26;8.00;;;3.30;;
6928;SDS011;3504;52.616;13.238;2023-04-25T10:56:38;11.63;;;3.37;;
6928;SDS011;3504;52.616;13.238;2023-04-25T11:01:47;9.90;;;3.13;;
6928;SDS011;3504;52.616;13.238;2023-04-25T11:06:55;9.50;;;2.97;;
6928;SDS011;3504;52.616;13.238;2023-04-25T11:12:21;7.03;;;2.30;;
6928;SDS011;3504;52.616;13.238;2023-04-25T11:17:21;11.43;;;2.67;;
6928;SDS011;3504;52.616;13.238;2023-04-25T11:22:26;8.00;;;2.50;;
6928;SDS011;3504;52.616;13.238;2023-04-25T11:27:28;11.60;;;3.17;;
6928;SDS011;3504;52.616;13.238;2023-04-25T11:32:28;10.43;;;2.80;;
6928;SDS011;3504;52.616;13.238;2023-04-25T11:37:29;6.37;;;2.83;;
6928;SDS011;3504;52.616;13.238;2023-04-25T11:42:29;10.37;;;2.63;;
6928;SDS011;3504;52.616;13.238;2023-04-25T11:47:30;9.70;;;2.90;;
6928;SDS011;3504;52.616;13.238;2023-04-25T11:52:50;10.53;;;3.13;;
6928;SDS011;3504;52.616;13.238;2023-04-25T11:57:50;8.33;;;3.00;;
6928;SDS011;3504;52.616;13.238;2023-04-25T12:02:54;9.53;;;2.93;;
6928;SDS011;3504;52.616;13.238;2023-04-25T12:07:58;6.80;;;2.50;;
6928;SDS011;3504;52.616;13.238;2023-04-25T12:18:42;7.13;;;2.63;;
6928;SDS011;3504;52.616;13.238;2023-04-25T12:23:43;6.47;;;2.80;;
6928;SDS011;3504;52.616;13.238;2023-04-25T12:28:45;8.20;;;2.50;;
6928;SDS011;3504;52.616;13.238;2023-04-25T12:33:47;9.80;;;3.23;;
6928;SDS011;3504;52.616;13.238;2023-04-25T12:38:47;5.87;;;2.80;;
6928;SDS011;3504;52.616;13.238;2023-04-25T12:43:49;9.97;;;3.20;;
6928;SDS011;3504;52.616;13.238;2023-04-25T12:48:50;8.10;;;2.53;;
6928;SDS011;3504;52.616;13.238;2023-04-25T12:53:51;9.40;;;2.70;;
6928;SDS011;3504;52.616;13.238;2023-04-25T12:58:52;5.03;;;2.37;;
6928;SDS011;3504;52.616;13.238;2023-04-25T13:03:53;5.80;;;2.27;;
6928;SDS011;3504;52.616;13.238;2023-04-25T13:08:54;5.53;;;2.40;;
6928;SDS011;3504;52.616;13.238;2023-04-25T13:13:55;7.40;;;2.00;;
6928;SDS011;3504;52.616;13.238;2023-04-25T13:18:56;5.80;;;2.07;;
6928;SDS011;3504;52.616;13.238;2023-04-25T13:23:56;7.03;;;2.90;;
6928;SDS011;3504;52.616;13.238;2023-04-25T13:28:56;9.67;;;2.53;;
6928;SDS011;3504;52.616;13.238;2023-04-25T13:33:57;7.17;;;2.60;;
6928;SDS011;3504;52.616;13.238;2023-04-25T13:38:57;8.07;;;2.60;;
6928;SDS011;3504;52.616;13.238;2023-04-25T13:43:58;5.60;;;2.33;;
6928;SDS011;3504;52.616;13.238;2023-04-25T13:49:15;4.23;;;2.13;;
6928;SDS011;3504;52.616;13.238;2023-04-25T13:54:15;8.07;;;2.33;;
6928;SDS011;3504;52.616;13.238;2023-04-25T13:59:16;5.80;;;2.43;;
6928;SDS011;3504;52.616;13.238;2023-04-25T14:04:17;6.03;;;2.30;;
6928;SDS011;3504;52.616;13.238;2023-04-25T14:09:18;4.47;;;2.10;;
6928;SDS011;3504;52.616;13.238;2023-04-25T14:14:23;7.30;;;2.70;;
6928;SDS011;3504;52.616;13.238;2023-04-25T14:19:24;7.30;;;2.70;;
6928;SDS011;3504;52.616;13.238;2023-04-25T14:24:24;7.43;;;3.17;;
6928;SDS011;3504;52.616;13.238;2023-04-25T14:29:25;6.33;;;2.70;;
6928;SDS011;3504;52.616;13.238;2023-04-25T14:34:28;7.60;;;2.37;;
6928;SDS011;3504;52.616;13.238;2023-04-25T14:39:28;5.43;;;1.90;;
6928;SDS011;3504;52.616;13.238;2023-04-25T14:44:29;7.20;;;2.27;;
6928;SDS011;3504;52.616;13.238;2023-04-25T14:49:29;4.97;;;2.00;;
6928;SDS011;3504;52.616;13.238;2023-04-25T14:54:30;3.50;;;1.50;;
6928;SDS011;3504;52.616;13.238;2023-04-25T14:59:30;8.93;;;3.17;;
6928;SDS011;3504;52.616;13.238;2023-04-25T15:04:31;4.87;;;1.80;;
6928;SDS011;3504;52.616;13.238;2023-04-25T15:09:31;3.13;;;1.30;;
6928;SDS011;3504;52.616;13.238;2023-04-25T15:14:33;4.00;;;1.50;;
6928;SDS011;3504;52.616;13.238;2023-04-25T15:19:33;3.73;;;1.60;;
6928;SDS011;3504;52.616;13.238;2023-04-25T15:24:34;6.00;;;1.43;;
6928;SDS011;3504;52.616;13.238;2023-04-25T15:29:35;5.43;;;1.50;;
6928;SDS011;3504;52.616;13.238;2023-04-25T15:34:35;3.47;;;2.03;;
6928;SDS011;3504;52.616;13.238;2023-04-25T15:39:37;4.80;;;1.60;;
6928;SDS011;3504;52.616;13.238;2023-04-25T15:44:38;5.20;;;1.77;;
6928;SDS011;3504;52.616;13.238;2023-04-25T15:49:39;5.17;;;1.70;;
6928;SDS011;3504;52.616;13.238;2023-04-25T15:54:40;2.50;;;1.20;;
6928;SDS011;3504;52.616;13.238;2023-04-25T15:59:40;3.97;;;1.40;;
6928;SDS011;3504;52.616;13.238;2023-04-25T16:04:41;5.67;;;1.50;;
6928;SDS011;3504;52.616;13.238;2023-04-25T16:09:41;3.87;;;1.40;;
6928;SDS011;3504;52.616;13.238;2023-04-25T16:14:43;5.40;;;1.10;;
6928;SDS011;3504;52.616;13.238;2023-04-25T16:19:44;3.20;;;1.23;;
6928;SDS011;3504;52.616;13.238;2023-04-25T16:24:45;5.00;;;1.40;;
6928;SDS011;3504;52.616;13.238;2023-04-25T16:29:45;2.60;;;1.20;;
6928;SDS011;3504;52.616;13.238;2023-04-25T16:34:48;5.37;;;1.70;;
6928;SDS011;3504;52.616;13.238;2023-04-25T16:39:49;6.90;;;1.43;;
6928;SDS011;3504;52.616;13.238;2023-04-25T16:44:52;3.87;;;1.37;;
6928;SDS011;3504;52.616;13.238;2023-04-25T16:49:52;5.77;;;1.30;;
6928;SDS011;3504;52.616;13.238;2023-04-25T16:54:53;7.23;;;1.63;;
6928;SDS011;3504;52.616;13.238;2023-04-25T16:59:54;5.20;;;1.30;;
6928;SDS011;3504;52.616;13.238;2023-04-25T17:04:55;3.40;;;1.40;;
6928;SDS011;3504;52.616;13.238;2023-04-25T17:09:58;2.83;;;1.60;;
6928;SDS011;3504;52.616;13.238;2023-04-25T17:14:59;4.07;;;1.70;;
6928;SDS011;3504;52.616;13.238;2023-04-25T17:20:00;4.43;;;1.47;;
6928;SDS011;3504;52.616;13.238;2023-04-25T17:25:00;3.07;;;1.50;;
6928;SDS011;3504;52.616;13.238;2023-04-25T17:30:01;5.57;;;1.90;;
6928;SDS011;3504;52.616;13.238;2023-04-25T17:35:04;5.57;;;1.57;;
6928;SDS011;3504;52.616;13.238;2023-04-25T17:40:05;3.57;;;1.67;;
6928;SDS011;3504;52.616;13.238;2023-04-25T17:45:11;5.83;;;2.10;;
6928;SDS011;3504;52.616;13.238;2023-04-25T17:50:12;6.00;;;1.70;;
6928;SDS011;3504;52.616;13.238;2023-04-25T17:55:15;5.63;;;1.70;;
6928;SDS011;3504;52.616;13.238;2023-04-25T18:00:16;10.40;;;1.83;;
6928;SDS011;3504;52.616;13.238;2023-04-25T18:05:17;8.30;;;2.37;;
6928;SDS011;3504;52.616;13.238;2023-04-25T18:10:18;8.90;;;2.30;;
6928;SDS011;3504;52.616;13.238;2023-04-25T18:15:18;5.23;;;1.90;;
6928;SDS011;3504;52.616;13.238;2023-04-25T18:20:21;7.27;;;2.17;;
6928;SDS011;3504;52.616;13.238;2023-04-25T18:25:22;6.77;;;2.43;;
6928;SDS011;3504;52.616;13.238;2023-04-25T18:30:23;6.50;;;2.10;;
6928;SDS011;3504;52.616;13.238;2023-04-25T18:35:23;5.47;;;1.97;;
6928;SDS011;3504;52.616;13.238;2023-04-25T18:40:26;7.30;;;1.87;;
6928;SDS011;3504;52.616;13.238;2023-04-25T18:45:27;5.93;;;1.63;;
6928;SDS011;3504;52.616;13.238;2023-04-25T18:50:27;6.03;;;1.97;;
6928;SDS011;3504;52.616;13.238;2023-04-25T18:55:28;5.70;;;2.00;;
6928;SDS011;3504;52.616;13.238;2023-04-25T19:00:29;5.20;;;1.87;;
6928;SDS011;3504;52.616;13.238;2023-04-25T19:05:30;8.63;;;2.47;;
6928;SDS011;3504;52.616;13.238;2023-04-25T19:10:30;5.10;;;1.60;;
6928;SDS011;3504;52.616;13.238;2023-04-25T19:15:31;4.20;;;1.87;;
6928;SDS011;3504;52.616;13.238;2023-04-25T19:20:32;4.17;;;1.90;;
6928;SDS011;3504;52.616;13.238;2023-04-25T19:25:33;4.77;;;2.03;;
6928;SDS011;3504;52.616;13.238;2023-04-25T19:30:33;8.13;;;2.60;;
6928;SDS011;3504;52.616;13.238;2023-04-25T19:35:34;6.37;;;2.30;;
6928;SDS011;3504;52.616;13.238;2023-04-25T19:40:34;6.00;;;2.43;;
6928;SDS011;3504;52.616;13.238;2023-04-25T19:45:35;5.43;;;2.50;;
6928;SDS011;3504;52.616;13.238;2023-04-25T19:50:36;9.73;;;4.37;;
6928;SDS011;3504;52.616;13.238;2023-04-25T19:55:36;7.77;;;3.17;;
6928;SDS011;3504;52.616;13.238;2023-04-25T20:00:37;5.57;;;2.33;;
6928;SDS011;3504;52.616;13.238;2023-04-25T20:05:38;5.37;;;1.90;;
6928;SDS011;3504;52.616;13.238;2023-04-25T20:10:38;7.67;;;1.93;;
6928;SDS011;3504;52.616;13.238;2023-04-25T20:15:39;5.63;;;2.00;;
6928;SDS011;3504;52.616;13.238;2023-04-25T20:20:40;8.77;;;2.30;;
6928;SDS011;3504;52.616;13.238;2023-04-25T20:25:40;6.60;;;2.00;;
6928;SDS011;3504;52.616;13.238;2023-04-25T20:30:42;5.20;;;2.13;;
6928;SDS011;3504;52.616;13.238;2023-04-25T20:35:43;5.37;;;2.00;;
6928;SDS011;3504;52.616;13.238;2023-04-25T20:40:43;7.43;;;2.60;;
6928;SDS011;3504;52.616;13.238;2023-04-25T20:45:44;5.83;;;2.20;;
6928;SDS011;3504;52.616;13.238;2023-04-25T20:50:44;6.80;;;2.73;;
6928;SDS011;3504;52.616;13.238;2023-04-25T20:55:45;7.57;;;2.73;;
6928;SDS011;3504;52.616;13.238;2023-04-25T21:00:47;7.13;;;2.47;;
6928;SDS011;3504;52.616;13.238;2023-04-25T21:05:47;9.90;;;2.70;;
6928;SDS011;3504;52.616;13.238;2023-04-25T21:10:48;6.63;;;2.00;;
6928;SDS011;3504;52.616;13.238;2023-04-25T21:15:49;8.57;;;2.47;;
6928;SDS011;3504;52.616;13.238;2023-04-25T21:20:49;4.87;;;2.37;;
6928;SDS011;3504;52.616;13.238;2023-04-25T21:25:50;7.27;;;2.73;;
6928;SDS011;3504;52.616;13.238;2023-04-25T21:30:52;8.10;;;3.03;;
6928;SDS011;3504;52.616;13.238;2023-04-25T21:35:53;7.13;;;2.43;;
6928;SDS011;3504;52.616;13.238;2023-04-25T21:40:53;8.60;;;1.97;;
6928;SDS011;3504;52.616;13.238;2023-04-25T21:45:54;7.57;;;3.00;;
6928;SDS011;3504;52.616;13.238;2023-04-25T21:50:54;5.73;;;2.10;;
6928;SDS011;3504;52.616;13.238;2023-04-25T21:55:55;7.47;;;2.20;;
6928;SDS011;3504;52.616;13.238;2023-04-25T22:00:55;6.63;;;2.30;;
6928;SDS011;3504;52.616;13.238;2023-04-25T22:05:58;7.67;;;2.77;;
6928;SDS011;3504;52.616;13.238;2023-04-25T22:10:58;5.83;;;2.23;;
6928;SDS011;3504;52.616;13.238;2023-04-25T22:16:00;7.03;;;2.13;;
6928;SDS011;3504;52.616;13.238;2023-04-25T22:21:01;5.93;;;1.90;;
6928;SDS011;3504;52.616;13.238;2023-04-25T22:26:01;9.57;;;2.23;;
6928;SDS011;3504;52.616;13.238;2023-04-25T22:31:02;4.03;;;2.00;;
6928;SDS011;3504;52.616;13.238;2023-04-25T22:36:03;3.97;;;1.73;;
6928;SDS011;3504;52.616;13.238;2023-04-25T22:41:04;8.53;;;2.67;;
6928;SDS011;3504;52.616;13.238;2023-04-25T22:46:17;5.47;;;2.20;;
6928;SDS011;3504;52.616;13.238;2023-04-25T22:51:19;6.37;;;2.03;;
6928;SDS011;3504;52.616;13.238;2023-04-25T22:56:19;5.70;;;1.93;;
6928;SDS011;3504;52.616;13.238;2023-04-25T23:01:20;7.93;;;2.70;;
6928;SDS011;3504;52.616;13.238;2023-04-25T23:06:20;9.50;;;2.00;;
6928;SDS011;3504;52.616;13.238;2023-04-25T23:11:21;7.90;;;2.43;;
6928;SDS011;3504;52.616;13.238;2023-04-25T23:16:23;8.17;;;2.10;;
6928;SDS011;3504;52.616;13.238;2023-04-25T23:21:23;9.77;;;2.20;;
6928;SDS011;3504;52.616;13.238;2023-04-25T23:26:24;7.27;;;2.17;;
6928;SDS011;3504;52.616;13.238;2023-04-25T23:31:25;8.10;;;2.37;;
6928;SDS011;3504;52.616;13.238;2023-04-25T23:36:26;5.13;;;2.17;;
6928;SDS011;3504;52.616;13.238;2023-04-25T23:41:27;8.83;;;2.17;;
6928;SDS011;3504;52.616;13.238;2023-04-25T23:46:27;11.47;;;2.50;;
6928;SDS011;3504;52.616;13.238;2023-04-25T23:51:28;6.33;;;2.30;;
6928;SDS011;3504;52.616;13.238;2023-04-25T23:56:28;7.80;;;2.23;;
